BAW844 EGLL-EPWA
Flight info
| Callsign | BAW844 |
|---|---|
| Flight time | 1h 58m |
| Altitude | 35000 |
| Route | BPK6J BPK Q295 BRAIN M197 REDFA DCT TACHA DCT HLZ DCT PENEK DCT ADLIR L980 SUBIX DCT OBOKU DCT DOSIX DCT BIMPA BIMPA6V |
| Aircraft | A21N/M-SDE3FGHIJ1LRWXYZ/SB1G1 |
Departure
| Time | 2026-05-04 13:33 |
|---|---|
| Airport | London Heathrow Airport (EGLL) |
Arrival
| Time | 2026-05-04 15:31 |
|---|---|
| Airport | Warsaw Chopin Airport (EPWA) |
| Time | Latitude | Longitude | Altitude | Speed | Heading |
|---|---|---|---|---|---|
| 2026-05-04 12:32 | 51.46926 | -0.48573 | 92 ft | 0 kts | 360° |
| 2026-05-04 13:20 | 51.46922 | -0.48573 | 91 ft | 3 kts | 360° |
| 2026-05-04 13:21 | 51.46899 | -0.48573 | 91 ft | 2 kts | 359° |
| 2026-05-04 13:21 | 51.46881 | -0.48578 | 91 ft | 4 kts | 62° |
| 2026-05-04 13:21 | 51.46877 | -0.48615 | 91 ft | 4 kts | 90° |
| 2026-05-04 13:21 | 51.46877 | -0.48643 | 91 ft | 0 kts | 90° |
| 2026-05-04 13:25 | 51.46877 | -0.48568 | 91 ft | 6 kts | 90° |
| 2026-05-04 13:25 | 51.46869 | -0.48492 | 92 ft | 8 kts | 131° |
| 2026-05-04 13:25 | 51.46811 | -0.48469 | 91 ft | 10 kts | 180° |
| 2026-05-04 13:25 | 51.46736 | -0.48468 | 92 ft | 12 kts | 179° |
| 2026-05-04 13:26 | 51.46667 | -0.48457 | 93 ft | 9 kts | 148° |
| 2026-05-04 13:26 | 51.46652 | -0.48354 | 92 ft | 11 kts | 88° |
| 2026-05-04 13:26 | 51.46653 | -0.48222 | 92 ft | 13 kts | 89° |
| 2026-05-04 13:26 | 51.46653 | -0.48073 | 92 ft | 14 kts | 90° |
| 2026-05-04 13:27 | 51.46653 | -0.47907 | 91 ft | 16 kts | 89° |
| 2026-05-04 13:27 | 51.46654 | -0.47728 | 91 ft | 17 kts | 90° |
| 2026-05-04 13:27 | 51.46655 | -0.47530 | 91 ft | 18 kts | 90° |
| 2026-05-04 13:27 | 51.46655 | -0.47321 | 91 ft | 19 kts | 90° |
| 2026-05-04 13:28 | 51.46657 | -0.47099 | 95 ft | 20 kts | 90° |
| 2026-05-04 13:28 | 51.46657 | -0.46864 | 95 ft | 22 kts | 89° |
| 2026-05-04 13:28 | 51.46658 | -0.46618 | 95 ft | 23 kts | 90° |
| 2026-05-04 13:28 | 51.46659 | -0.46359 | 95 ft | 24 kts | 90° |
| 2026-05-04 13:29 | 51.46660 | -0.46088 | 94 ft | 25 kts | 90° |
| 2026-05-04 13:29 | 51.46661 | -0.45834 | 91 ft | 17 kts | 89° |
| 2026-05-04 13:29 | 51.46662 | -0.45655 | 91 ft | 17 kts | 90° |
| 2026-05-04 13:29 | 51.46662 | -0.45461 | 91 ft | 18 kts | 89° |
| 2026-05-04 13:30 | 51.46662 | -0.45255 | 92 ft | 19 kts | 90° |
| 2026-05-04 13:30 | 51.46663 | -0.45037 | 92 ft | 20 kts | 89° |
| 2026-05-04 13:30 | 51.46663 | -0.44805 | 92 ft | 21 kts | 90° |
| 2026-05-04 13:30 | 51.46664 | -0.44561 | 92 ft | 22 kts | 90° |
| 2026-05-04 13:31 | 51.46665 | -0.44310 | 92 ft | 19 kts | 90° |
| 2026-05-04 13:31 | 51.46666 | -0.44146 | 91 ft | 12 kts | 89° |
| 2026-05-04 13:31 | 51.46646 | -0.44059 | 92 ft | 9 kts | 150° |
| 2026-05-04 13:31 | 51.46574 | -0.44053 | 92 ft | 11 kts | 182° |
| 2026-05-04 13:32 | 51.46509 | -0.44061 | 91 ft | 6 kts | 209° |
| 2026-05-04 13:32 | 51.46492 | -0.44128 | 91 ft | 8 kts | 269° |
| 2026-05-04 13:32 | 51.46492 | -0.44242 | 92 ft | 23 kts | 269° |
| 2026-05-04 13:32 | 51.46490 | -0.44897 | 96 ft | 93 kts | 270° |
| 2026-05-04 13:33 | 51.46485 | -0.46273 | 97 ft | 151 kts | 270° |
| 2026-05-04 13:33 | 51.46469 | -0.48152 | 327 ft | 171 kts | 269° |
| 2026-05-04 13:33 | 51.46434 | -0.50058 | 939 ft | 174 kts | 272° |
| 2026-05-04 13:33 | 51.46764 | -0.51919 | 1494 ft | 181 kts | 300° |
| 2026-05-04 13:34 | 51.47426 | -0.53754 | 2100 ft | 199 kts | 300° |
| 2026-05-04 13:34 | 51.48081 | -0.55796 | 2825 ft | 213 kts | 299° |
| 2026-05-04 13:34 | 51.48791 | -0.57989 | 3419 ft | 232 kts | 298° |
| 2026-05-04 13:34 | 51.49556 | -0.60370 | 4020 ft | 245 kts | 297° |
| 2026-05-04 13:35 | 51.50344 | -0.62836 | 4868 ft | 249 kts | 297° |
| 2026-05-04 13:35 | 51.53004 | -0.66148 | 5853 ft | 258 kts | 349° |
| 2026-05-04 13:35 | 51.54788 | -0.66038 | 5982 ft | 260 kts | 15° |
| 2026-05-04 13:36 | 51.56444 | -0.64668 | 6013 ft | 277 kts | 41° |
| 2026-05-04 13:36 | 51.57694 | -0.62312 | 6027 ft | 280 kts | 55° |
| 2026-05-04 13:36 | 51.58812 | -0.59743 | 6541 ft | 283 kts | 55° |
| 2026-05-04 13:36 | 51.59937 | -0.57129 | 7380 ft | 286 kts | 58° |
| 2026-05-04 13:37 | 51.60900 | -0.54323 | 8256 ft | 288 kts | 63° |
| 2026-05-04 13:37 | 51.61823 | -0.51448 | 9129 ft | 291 kts | 63° |
| 2026-05-04 13:37 | 51.62758 | -0.48533 | 9955 ft | 295 kts | 63° |
| 2026-05-04 13:37 | 51.63389 | -0.46575 | 10366 ft | 303 kts | 63° |
| 2026-05-04 13:38 | 51.64745 | -0.42383 | 10855 ft | 329 kts | 63° |
| 2026-05-04 13:38 | 51.65829 | -0.39033 | 11247 ft | 348 kts | 63° |
| 2026-05-04 13:38 | 51.66978 | -0.35489 | 11662 ft | 363 kts | 63° |
| 2026-05-04 13:38 | 51.68151 | -0.31856 | 12345 ft | 368 kts | 63° |
| 2026-05-04 13:39 | 51.69343 | -0.28173 | 13093 ft | 372 kts | 63° |
| 2026-05-04 13:39 | 51.70538 | -0.24477 | 13841 ft | 376 kts | 63° |
| 2026-05-04 13:39 | 51.71750 | -0.20722 | 14503 ft | 379 kts | 63° |
| 2026-05-04 13:39 | 51.72955 | -0.16975 | 15163 ft | 383 kts | 63° |
| 2026-05-04 13:40 | 51.74153 | -0.13238 | 15797 ft | 386 kts | 64° |
| 2026-05-04 13:40 | 51.75095 | -0.09194 | 16419 ft | 387 kts | 78° |
| 2026-05-04 13:40 | 51.75573 | -0.04913 | 17052 ft | 388 kts | 83° |
| 2026-05-04 13:40 | 51.75927 | -0.00796 | 17636 ft | 391 kts | 84° |
| 2026-05-04 13:41 | 51.76284 | 0.03579 | 18195 ft | 394 kts | 84° |
| 2026-05-04 13:41 | 51.76636 | 0.07986 | 18717 ft | 397 kts | 84° |
| 2026-05-04 13:41 | 51.76991 | 0.12430 | 19197 ft | 401 kts | 84° |
| 2026-05-04 13:42 | 51.77684 | 0.21083 | 20125 ft | 407 kts | 84° |
| 2026-05-04 13:42 | 51.78040 | 0.25573 | 20600 ft | 411 kts | 84° |
| 2026-05-04 13:42 | 51.78405 | 0.30198 | 21071 ft | 414 kts | 84° |
| 2026-05-04 13:42 | 51.78767 | 0.34800 | 21535 ft | 417 kts | 84° |
| 2026-05-04 13:43 | 51.79131 | 0.39469 | 22007 ft | 421 kts | 84° |
| 2026-05-04 13:43 | 51.79497 | 0.44178 | 22473 ft | 424 kts | 84° |
| 2026-05-04 13:43 | 51.79865 | 0.48930 | 22931 ft | 428 kts | 84° |
| 2026-05-04 13:43 | 51.80235 | 0.53715 | 23375 ft | 432 kts | 84° |
| 2026-05-04 13:44 | 51.80606 | 0.58560 | 23786 ft | 435 kts | 84° |
| 2026-05-04 13:44 | 51.80979 | 0.63426 | 24192 ft | 438 kts | 83° |
| 2026-05-04 13:44 | 51.81571 | 0.68269 | 24600 ft | 442 kts | 77° |
| 2026-05-04 13:44 | 51.82317 | 0.73106 | 25001 ft | 445 kts | 77° |
| 2026-05-04 13:45 | 51.83075 | 0.77965 | 25392 ft | 447 kts | 77° |
| 2026-05-04 13:45 | 51.83873 | 0.82846 | 25769 ft | 450 kts | 75° |
| 2026-05-04 13:45 | 51.84578 | 0.86720 | 26064 ft | 453 kts | 75° |
| 2026-05-04 13:45 | 51.85472 | 0.91619 | 26429 ft | 456 kts | 75° |
| 2026-05-04 13:46 | 51.86245 | 0.95853 | 26744 ft | 458 kts | 75° |
| 2026-05-04 13:46 | 51.87148 | 1.00814 | 27059 ft | 461 kts | 75° |
| 2026-05-04 13:46 | 51.88054 | 1.05807 | 27384 ft | 464 kts | 75° |
| 2026-05-04 13:46 | 51.88963 | 1.10829 | 27727 ft | 466 kts | 75° |
| 2026-05-04 13:47 | 51.89872 | 1.15879 | 28071 ft | 469 kts | 75° |
| 2026-05-04 13:47 | 51.90776 | 1.20911 | 28420 ft | 470 kts | 76° |
| 2026-05-04 13:47 | 51.91685 | 1.25997 | 28680 ft | 473 kts | 76° |
| 2026-05-04 13:47 | 51.92599 | 1.31125 | 28992 ft | 475 kts | 76° |
| 2026-05-04 13:48 | 51.93517 | 1.36286 | 29328 ft | 476 kts | 76° |
| 2026-05-04 13:48 | 51.94431 | 1.41447 | 29733 ft | 476 kts | 76° |
| 2026-05-04 13:48 | 51.95342 | 1.46602 | 30141 ft | 475 kts | 76° |
| 2026-05-04 13:48 | 51.96251 | 1.51739 | 30503 ft | 474 kts | 76° |
| 2026-05-04 13:49 | 51.97158 | 1.56874 | 30827 ft | 473 kts | 76° |
| 2026-05-04 13:49 | 51.98062 | 1.62010 | 31148 ft | 473 kts | 76° |
| 2026-05-04 13:49 | 51.98961 | 1.67144 | 31484 ft | 473 kts | 77° |
| 2026-05-04 13:49 | 51.99794 | 1.72306 | 31802 ft | 472 kts | 78° |
| 2026-05-04 13:50 | 52.00598 | 1.77448 | 32121 ft | 472 kts | 78° |
| 2026-05-04 13:50 | 52.01399 | 1.82613 | 32417 ft | 471 kts | 78° |
| 2026-05-04 13:50 | 52.02199 | 1.87778 | 32714 ft | 471 kts | 78° |
| 2026-05-04 13:50 | 52.02996 | 1.92942 | 33003 ft | 471 kts | 78° |
| 2026-05-04 13:51 | 52.03791 | 1.98103 | 33245 ft | 471 kts | 78° |
| 2026-05-04 13:51 | 52.04585 | 2.03273 | 33443 ft | 473 kts | 79° |
| 2026-05-04 13:51 | 52.05378 | 2.08458 | 33692 ft | 473 kts | 78° |
| 2026-05-04 13:51 | 52.06169 | 2.13648 | 33945 ft | 473 kts | 78° |
| 2026-05-04 13:52 | 52.07742 | 2.24003 | 34375 ft | 472 kts | 78° |
| 2026-05-04 13:52 | 52.08527 | 2.29188 | 34583 ft | 471 kts | 78° |
| 2026-05-04 13:52 | 52.09306 | 2.34360 | 34779 ft | 471 kts | 78° |
| 2026-05-04 13:53 | 52.10085 | 2.39538 | 34965 ft | 471 kts | 78° |
| 2026-05-04 13:53 | 52.11324 | 2.49914 | 35035 ft | 470 kts | 87° |
| 2026-05-04 13:54 | 52.12299 | 2.65449 | 35017 ft | 470 kts | 87° |
| 2026-05-04 13:55 | 52.13297 | 2.81264 | 35006 ft | 470 kts | 87° |
| 2026-05-04 13:55 | 52.14285 | 2.97132 | 34994 ft | 471 kts | 88° |
| 2026-05-04 13:56 | 52.14936 | 3.07792 | 35004 ft | 473 kts | 88° |
| 2026-05-04 13:57 | 52.15897 | 3.23794 | 35013 ft | 473 kts | 88° |
| 2026-05-04 13:58 | 52.17142 | 3.45133 | 35001 ft | 473 kts | 88° |
| 2026-05-04 13:58 | 52.18054 | 3.61220 | 35002 ft | 476 kts | 88° |
| 2026-05-04 13:59 | 52.18651 | 3.71954 | 35005 ft | 475 kts | 89° |
| 2026-05-04 14:00 | 52.19527 | 3.88053 | 34996 ft | 476 kts | 89° |
| 2026-05-04 14:00 | 52.20291 | 4.02381 | 34991 ft | 477 kts | 89° |
| 2026-05-04 14:01 | 52.20847 | 4.13156 | 34992 ft | 477 kts | 89° |
| 2026-05-04 14:02 | 52.21672 | 4.29370 | 34986 ft | 480 kts | 89° |
| 2026-05-04 14:02 | 52.22213 | 4.40214 | 34990 ft | 479 kts | 89° |
| 2026-05-04 14:03 | 52.22745 | 4.51044 | 34986 ft | 479 kts | 89° |
| 2026-05-04 14:03 | 52.23260 | 4.61888 | 34984 ft | 479 kts | 89° |
| 2026-05-04 14:04 | 52.24020 | 4.78131 | 34993 ft | 479 kts | 89° |
| 2026-05-04 14:04 | 52.24511 | 4.88908 | 34993 ft | 479 kts | 89° |
| 2026-05-04 14:05 | 52.25233 | 5.05283 | 34993 ft | 480 kts | 89° |
| 2026-05-04 14:06 | 52.25703 | 5.16156 | 34991 ft | 480 kts | 90° |
| 2026-05-04 14:06 | 52.26161 | 5.26960 | 34986 ft | 480 kts | 90° |
| 2026-05-04 14:07 | 52.26614 | 5.37907 | 34985 ft | 480 kts | 90° |
| 2026-05-04 14:07 | 52.27053 | 5.48795 | 34981 ft | 482 kts | 90° |
| 2026-05-04 14:08 | 52.27482 | 5.59649 | 34989 ft | 482 kts | 90° |
| 2026-05-04 14:08 | 52.27905 | 5.70573 | 34969 ft | 482 kts | 90° |
| 2026-05-04 14:09 | 52.28519 | 5.86949 | 34963 ft | 481 kts | 90° |
| 2026-05-04 14:10 | 52.29108 | 6.03373 | 34959 ft | 483 kts | 90° |
| 2026-05-04 14:10 | 52.29493 | 6.14337 | 34960 ft | 483 kts | 90° |
| 2026-05-04 14:11 | 52.29864 | 6.25306 | 34965 ft | 483 kts | 90° |
| 2026-05-04 14:11 | 52.30406 | 6.41748 | 34966 ft | 483 kts | 90° |
| 2026-05-04 14:12 | 52.30753 | 6.52741 | 34961 ft | 484 kts | 90° |
| 2026-05-04 14:13 | 52.31255 | 6.69234 | 34968 ft | 485 kts | 91° |
| 2026-05-04 14:13 | 52.31575 | 6.80241 | 34969 ft | 485 kts | 91° |
| 2026-05-04 14:14 | 52.31891 | 6.91249 | 34970 ft | 485 kts | 91° |
| 2026-05-04 14:14 | 52.32341 | 7.07757 | 34976 ft | 488 kts | 91° |
| 2026-05-04 14:15 | 52.32908 | 7.29905 | 34981 ft | 488 kts | 90° |
| 2026-05-04 14:16 | 52.33543 | 7.46539 | 34960 ft | 489 kts | 89° |
| 2026-05-04 14:17 | 52.34146 | 7.63181 | 34968 ft | 489 kts | 90° |
| 2026-05-04 14:18 | 52.34711 | 7.79815 | 34975 ft | 489 kts | 90° |
| 2026-05-04 14:19 | 52.35437 | 8.02026 | 34962 ft | 490 kts | 90° |
| 2026-05-04 14:19 | 52.35781 | 8.13162 | 34978 ft | 490 kts | 90° |
| 2026-05-04 14:20 | 52.36121 | 8.24296 | 34979 ft | 490 kts | 90° |
| 2026-05-04 14:20 | 52.36447 | 8.35435 | 34977 ft | 490 kts | 90° |
| 2026-05-04 14:21 | 52.36917 | 8.52151 | 34963 ft | 492 kts | 90° |
| 2026-05-04 14:21 | 52.37217 | 8.63325 | 34962 ft | 492 kts | 90° |
| 2026-05-04 14:22 | 52.37506 | 8.74503 | 34963 ft | 492 kts | 91° |
| 2026-05-04 14:22 | 52.37789 | 8.85693 | 34961 ft | 491 kts | 91° |
| 2026-05-04 14:23 | 52.38187 | 9.02469 | 34955 ft | 492 kts | 91° |
| 2026-05-04 14:24 | 52.38438 | 9.13590 | 34960 ft | 492 kts | 91° |
| 2026-05-04 14:24 | 52.38679 | 9.24775 | 34963 ft | 492 kts | 91° |
| 2026-05-04 14:25 | 52.38910 | 9.35968 | 34957 ft | 491 kts | 91° |
| 2026-05-04 14:25 | 52.39238 | 9.52770 | 34969 ft | 493 kts | 91° |
| 2026-05-04 14:26 | 52.39444 | 9.63997 | 34966 ft | 493 kts | 91° |
| 2026-05-04 14:26 | 52.39642 | 9.75233 | 34965 ft | 493 kts | 91° |
| 2026-05-04 14:27 | 52.39828 | 9.86457 | 34961 ft | 493 kts | 91° |
| 2026-05-04 14:27 | 52.40001 | 9.97677 | 34945 ft | 493 kts | 91° |
| 2026-05-04 14:28 | 52.40167 | 10.08893 | 34959 ft | 493 kts | 91° |
| 2026-05-04 14:28 | 52.40322 | 10.20133 | 34960 ft | 493 kts | 91° |
| 2026-05-04 14:29 | 52.40587 | 10.42578 | 34966 ft | 493 kts | 91° |
| 2026-05-04 14:30 | 52.40709 | 10.53811 | 34955 ft | 493 kts | 91° |
| 2026-05-04 14:31 | 52.40870 | 10.70370 | 34966 ft | 493 kts | 91° |
| 2026-05-04 14:32 | 52.41054 | 10.93058 | 34965 ft | 506 kts | 91° |
| 2026-05-04 14:32 | 52.41125 | 11.04649 | 34959 ft | 512 kts | 91° |
| 2026-05-04 14:32 | 52.41157 | 11.10441 | 34961 ft | 501 kts | 91° |
| 2026-05-04 14:33 | 52.41191 | 11.16106 | 34954 ft | 494 kts | 91° |
| 2026-05-04 14:33 | 52.41244 | 11.27320 | 34961 ft | 492 kts | 92° |
| 2026-05-04 14:34 | 52.41285 | 11.38461 | 34957 ft | 492 kts | 92° |
| 2026-05-04 14:34 | 52.41312 | 11.49687 | 34952 ft | 492 kts | 92° |
| 2026-05-04 14:35 | 52.41333 | 11.60883 | 34960 ft | 492 kts | 92° |
| 2026-05-04 14:35 | 52.41342 | 11.72084 | 34964 ft | 491 kts | 92° |
| 2026-05-04 14:36 | 52.41344 | 11.83275 | 34968 ft | 491 kts | 92° |
| 2026-05-04 14:36 | 52.41337 | 11.94501 | 34972 ft | 493 kts | 92° |
| 2026-05-04 14:37 | 52.41311 | 12.05732 | 34954 ft | 492 kts | 92° |
| 2026-05-04 14:37 | 52.41278 | 12.16941 | 34968 ft | 492 kts | 92° |
| 2026-05-04 14:38 | 52.41233 | 12.28076 | 34955 ft | 492 kts | 92° |
| 2026-05-04 14:38 | 52.41175 | 12.39274 | 34964 ft | 492 kts | 92° |
| 2026-05-04 14:39 | 52.41116 | 12.50479 | 34947 ft | 492 kts | 92° |
| 2026-05-04 14:39 | 52.41036 | 12.61650 | 34950 ft | 489 kts | 92° |
| 2026-05-04 14:40 | 52.40905 | 12.78357 | 34948 ft | 489 kts | 93° |
| 2026-05-04 14:40 | 52.40802 | 12.89502 | 34939 ft | 489 kts | 93° |
| 2026-05-04 14:41 | 52.40693 | 13.00633 | 34942 ft | 489 kts | 93° |
| 2026-05-04 14:42 | 52.40437 | 13.22847 | 34959 ft | 488 kts | 93° |
| 2026-05-04 14:42 | 52.40292 | 13.33956 | 34964 ft | 488 kts | 93° |
| 2026-05-04 14:43 | 52.40140 | 13.45053 | 34965 ft | 488 kts | 93° |
| 2026-05-04 14:43 | 52.39979 | 13.56148 | 34954 ft | 487 kts | 93° |
| 2026-05-04 14:44 | 52.39806 | 13.67232 | 34962 ft | 487 kts | 93° |
| 2026-05-04 14:44 | 52.39621 | 13.78327 | 34957 ft | 487 kts | 94° |
| 2026-05-04 14:45 | 52.39425 | 13.89412 | 34951 ft | 487 kts | 94° |
| 2026-05-04 14:45 | 52.39258 | 13.98617 | 34946 ft | 487 kts | 94° |
| 2026-05-04 14:46 | 52.39046 | 14.09682 | 34936 ft | 486 kts | 94° |
| 2026-05-04 14:46 | 52.38822 | 14.20754 | 34941 ft | 487 kts | 94° |
| 2026-05-04 14:47 | 52.38589 | 14.31835 | 34946 ft | 487 kts | 94° |
| 2026-05-04 14:47 | 52.38344 | 14.42922 | 34936 ft | 487 kts | 94° |
| 2026-05-04 14:48 | 52.38089 | 14.54013 | 34935 ft | 487 kts | 94° |
| 2026-05-04 14:48 | 52.37827 | 14.65090 | 34935 ft | 487 kts | 94° |
| 2026-05-04 14:49 | 52.37565 | 14.76154 | 34933 ft | 487 kts | 94° |
| 2026-05-04 14:49 | 52.37293 | 14.87241 | 34932 ft | 487 kts | 94° |
| 2026-05-04 14:50 | 52.37010 | 14.98235 | 34934 ft | 487 kts | 94° |
| 2026-05-04 14:50 | 52.36716 | 15.09277 | 34926 ft | 486 kts | 94° |
| 2026-05-04 14:51 | 52.36412 | 15.20326 | 34928 ft | 486 kts | 94° |
| 2026-05-04 14:51 | 52.36094 | 15.31363 | 34927 ft | 486 kts | 94° |
| 2026-05-04 14:52 | 52.35770 | 15.42412 | 34930 ft | 486 kts | 94° |
| 2026-05-04 14:52 | 52.35436 | 15.53436 | 34932 ft | 486 kts | 95° |
| 2026-05-04 14:53 | 52.35087 | 15.64448 | 34929 ft | 483 kts | 94° |
| 2026-05-04 14:53 | 52.34734 | 15.75426 | 34930 ft | 483 kts | 94° |
| 2026-05-04 14:54 | 52.34370 | 15.86405 | 34934 ft | 483 kts | 95° |
| 2026-05-04 14:54 | 52.33995 | 15.97374 | 34935 ft | 483 kts | 95° |
| 2026-05-04 14:55 | 52.33609 | 16.08340 | 34927 ft | 482 kts | 95° |
| 2026-05-04 14:55 | 52.33207 | 16.19274 | 34932 ft | 482 kts | 95° |
| 2026-05-04 14:56 | 52.32814 | 16.30212 | 34927 ft | 482 kts | 94° |
| 2026-05-04 14:56 | 52.32983 | 16.41195 | 34939 ft | 483 kts | 88° |
| 2026-05-04 14:57 | 52.33308 | 16.52181 | 34947 ft | 483 kts | 88° |
| 2026-05-04 14:57 | 52.33600 | 16.63152 | 34953 ft | 482 kts | 88° |
| 2026-05-04 14:58 | 52.33867 | 16.74108 | 34963 ft | 482 kts | 88° |
| 2026-05-04 14:58 | 52.34136 | 16.84983 | 34964 ft | 482 kts | 88° |
| 2026-05-04 14:59 | 52.34392 | 16.95943 | 34929 ft | 482 kts | 88° |
| 2026-05-04 15:00 | 52.34876 | 17.12367 | 34916 ft | 481 kts | 84° |
| 2026-05-04 15:00 | 52.35603 | 17.23232 | 34923 ft | 481 kts | 84° |
| 2026-05-04 15:01 | 52.36647 | 17.39540 | 34921 ft | 480 kts | 84° |
| 2026-05-04 15:01 | 52.37318 | 17.50408 | 34920 ft | 480 kts | 84° |
| 2026-05-04 15:02 | 52.37976 | 17.61267 | 34921 ft | 480 kts | 84° |
| 2026-05-04 15:02 | 52.38628 | 17.72128 | 34919 ft | 479 kts | 84° |
| 2026-05-04 15:03 | 52.39265 | 17.82985 | 34926 ft | 480 kts | 84° |
| 2026-05-04 15:03 | 52.39897 | 17.93888 | 34920 ft | 481 kts | 84° |
| 2026-05-04 15:04 | 52.40523 | 18.04799 | 34921 ft | 481 kts | 85° |
| 2026-05-04 15:04 | 52.41133 | 18.15711 | 34920 ft | 481 kts | 85° |
| 2026-05-04 15:05 | 52.41730 | 18.26594 | 34918 ft | 478 kts | 85° |
| 2026-05-04 15:05 | 52.42319 | 18.37446 | 34918 ft | 478 kts | 85° |
| 2026-05-04 15:06 | 52.42900 | 18.48307 | 34916 ft | 479 kts | 85° |
| 2026-05-04 15:07 | 52.43741 | 18.64541 | 33533 ft | 481 kts | 85° |
| 2026-05-04 15:07 | 52.44024 | 18.70044 | 32507 ft | 486 kts | 85° |
| 2026-05-04 15:07 | 52.44304 | 18.75544 | 31813 ft | 483 kts | 85° |
| 2026-05-04 15:07 | 52.44581 | 18.81005 | 31211 ft | 478 kts | 85° |
| 2026-05-04 15:08 | 52.44851 | 18.86399 | 30652 ft | 473 kts | 86° |
| 2026-05-04 15:08 | 52.45111 | 18.91674 | 30109 ft | 468 kts | 86° |
| 2026-05-04 15:08 | 52.45373 | 18.97033 | 29482 ft | 463 kts | 86° |
| 2026-05-04 15:08 | 52.45622 | 19.02186 | 28898 ft | 458 kts | 86° |
| 2026-05-04 15:09 | 52.45871 | 19.07376 | 28327 ft | 456 kts | 86° |
| 2026-05-04 15:09 | 52.46116 | 19.12535 | 27790 ft | 452 kts | 86° |
| 2026-05-04 15:09 | 52.46356 | 19.17656 | 27242 ft | 449 kts | 86° |
| 2026-05-04 15:10 | 52.46826 | 19.27801 | 26116 ft | 444 kts | 86° |
| 2026-05-04 15:10 | 52.47056 | 19.32831 | 25577 ft | 441 kts | 86° |
| 2026-05-04 15:10 | 52.47509 | 19.42793 | 24528 ft | 435 kts | 86° |
| 2026-05-04 15:11 | 52.47729 | 19.47733 | 23984 ft | 433 kts | 86° |
| 2026-05-04 15:11 | 52.47944 | 19.52653 | 23444 ft | 432 kts | 86° |
| 2026-05-04 15:11 | 52.48158 | 19.57548 | 22839 ft | 429 kts | 86° |
| 2026-05-04 15:11 | 52.48369 | 19.62407 | 22269 ft | 426 kts | 86° |
| 2026-05-04 15:12 | 52.48578 | 19.67245 | 21708 ft | 424 kts | 86° |
| 2026-05-04 15:12 | 52.48636 | 19.72056 | 20898 ft | 423 kts | 97° |
| 2026-05-04 15:12 | 52.48036 | 19.76762 | 20240 ft | 419 kts | 106° |
| 2026-05-04 15:12 | 52.47270 | 19.81334 | 19714 ft | 413 kts | 107° |
| 2026-05-04 15:13 | 52.46512 | 19.85842 | 19234 ft | 407 kts | 107° |
| 2026-05-04 15:13 | 52.45777 | 19.90299 | 18770 ft | 402 kts | 107° |
| 2026-05-04 15:13 | 52.45067 | 19.94686 | 18330 ft | 396 kts | 107° |
| 2026-05-04 15:13 | 52.44368 | 19.99017 | 17861 ft | 390 kts | 107° |
| 2026-05-04 15:14 | 52.43681 | 20.03275 | 17405 ft | 384 kts | 107° |
| 2026-05-04 15:14 | 52.42995 | 20.07497 | 16947 ft | 383 kts | 107° |
| 2026-05-04 15:14 | 52.42308 | 20.11712 | 16501 ft | 383 kts | 107° |
| 2026-05-04 15:14 | 52.41621 | 20.15929 | 16067 ft | 383 kts | 107° |
| 2026-05-04 15:15 | 52.40931 | 20.20149 | 15635 ft | 383 kts | 108° |
| 2026-05-04 15:15 | 52.40243 | 20.24353 | 15216 ft | 383 kts | 108° |
| 2026-05-04 15:15 | 52.39554 | 20.28560 | 14773 ft | 382 kts | 108° |
| 2026-05-04 15:16 | 52.37774 | 20.36721 | 13503 ft | 381 kts | 119° |
| 2026-05-04 15:16 | 52.36617 | 20.40589 | 12953 ft | 376 kts | 120° |
| 2026-05-04 15:16 | 52.34380 | 20.48149 | 12092 ft | 362 kts | 119° |
| 2026-05-04 15:17 | 52.33304 | 20.51843 | 11675 ft | 357 kts | 119° |
| 2026-05-04 15:17 | 52.31199 | 20.59060 | 10872 ft | 346 kts | 119° |
| 2026-05-04 15:17 | 52.30175 | 20.62564 | 10615 ft | 337 kts | 119° |
| 2026-05-04 15:18 | 52.29183 | 20.65954 | 10443 ft | 325 kts | 119° |
| 2026-05-04 15:18 | 52.28226 | 20.69223 | 10299 ft | 313 kts | 119° |
| 2026-05-04 15:18 | 52.27299 | 20.72384 | 10100 ft | 304 kts | 119° |
| 2026-05-04 15:19 | 52.25492 | 20.78536 | 9419 ft | 299 kts | 119° |
| 2026-05-04 15:19 | 52.24587 | 20.81604 | 8984 ft | 301 kts | 119° |
| 2026-05-04 15:19 | 52.22785 | 20.87705 | 8285 ft | 297 kts | 118° |
| 2026-05-04 15:20 | 52.21876 | 20.90777 | 7988 ft | 295 kts | 118° |
| 2026-05-04 15:20 | 52.20987 | 20.93785 | 7698 ft | 294 kts | 118° |
| 2026-05-04 15:20 | 52.20097 | 20.96785 | 7415 ft | 294 kts | 118° |
| 2026-05-04 15:20 | 52.19232 | 20.99703 | 7121 ft | 295 kts | 118° |
| 2026-05-04 15:21 | 52.18320 | 21.02779 | 6868 ft | 290 kts | 118° |
| 2026-05-04 15:21 | 52.17455 | 21.05697 | 6717 ft | 280 kts | 118° |
| 2026-05-04 15:21 | 52.15522 | 21.10867 | 6377 ft | 257 kts | 143° |
| 2026-05-04 15:22 | 52.14073 | 21.12505 | 5968 ft | 254 kts | 153° |
| 2026-05-04 15:22 | 52.12523 | 21.13891 | 5587 ft | 254 kts | 157° |
| 2026-05-04 15:22 | 52.09416 | 21.16620 | 4900 ft | 254 kts | 153° |
| 2026-05-04 15:23 | 52.07952 | 21.18227 | 4537 ft | 255 kts | 145° |
| 2026-05-04 15:23 | 52.06647 | 21.20183 | 4167 ft | 256 kts | 135° |
| 2026-05-04 15:23 | 52.05483 | 21.22360 | 3807 ft | 253 kts | 138° |
| 2026-05-04 15:23 | 52.04107 | 21.24035 | 3478 ft | 243 kts | 160° |
| 2026-05-04 15:24 | 52.00984 | 21.24266 | 3015 ft | 216 kts | 205° |
| 2026-05-04 15:24 | 51.99291 | 21.21054 | 2800 ft | 181 kts | 248° |
| 2026-05-04 15:25 | 51.98754 | 21.19232 | 2755 ft | 178 kts | 244° |
| 2026-05-04 15:25 | 51.98185 | 21.17445 | 2777 ft | 180 kts | 243° |
| 2026-05-04 15:25 | 51.97640 | 21.15631 | 2795 ft | 176 kts | 252° |
| 2026-05-04 15:26 | 51.98691 | 21.12288 | 2849 ft | 185 kts | 321° |
| 2026-05-04 15:26 | 51.99793 | 21.11313 | 2846 ft | 168 kts | 329° |
| 2026-05-04 15:26 | 52.01611 | 21.09748 | 2794 ft | 143 kts | 326° |
| 2026-05-04 15:27 | 52.02490 | 21.08983 | 2798 ft | 143 kts | 327° |
| 2026-05-04 15:27 | 52.04243 | 21.07460 | 2761 ft | 143 kts | 326° |
| 2026-05-04 15:28 | 52.06003 | 21.05930 | 2458 ft | 144 kts | 327° |
| 2026-05-04 15:28 | 52.06892 | 21.05155 | 2274 ft | 145 kts | 328° |
| 2026-05-04 15:28 | 52.08660 | 21.03616 | 1876 ft | 145 kts | 327° |
| 2026-05-04 15:29 | 52.09548 | 21.02841 | 1695 ft | 145 kts | 326° |
| 2026-05-04 15:30 | 52.12784 | 21.00021 | 955 ft | 144 kts | 329° |
| 2026-05-04 15:30 | 52.15722 | 20.97463 | 377 ft | 143 kts | 327° |
| 2026-05-04 15:31 | 52.16857 | 20.96461 | 345 ft | 66 kts | 331° |
| 2026-05-04 15:31 | 52.17192 | 20.96240 | 349 ft | 41 kts | 1° |
| 2026-05-04 15:32 | 52.17469 | 20.96506 | 346 ft | 15 kts | 61° |
| 2026-05-04 15:32 | 52.17568 | 20.96737 | 344 ft | 14 kts | 59° |
| 2026-05-04 15:33 | 52.17624 | 20.96931 | 353 ft | 7 kts | 118° |
| 2026-05-04 15:34 | 52.17514 | 20.97036 | 349 ft | 4 kts | 182° |
| 2026-05-04 15:34 | 52.17489 | 20.96988 | 349 ft | 7 kts | 245° |
| 2026-05-04 15:34 | 52.17486 | 20.96977 | 344 ft | 0 kts | 244° |
| 2026-05-04 15:35 | 52.17486 | 20.96975 | 352 ft | 1 kts | 244° |
| 2026-05-04 15:35 | 52.17479 | 20.96954 | 351 ft | 0 kts | 242° |